KCGZ/CGZ METAR and TAF weather

Enter ICAO airport designator
Station Type Date Time Source
KCGZ METAR 2019/02/16 02:56 UTC NOAA

KCGZ 160256Z AUTO 33004KT 10SM CLR 14/08 A2996 RMK AO2 SLP143 6//// T01440083 58004 PNO $


Station Type Date Time Source
KCGZ Decoded METAR 2019/02/16 02:56 UTC NOAA

Casa Grande, Casa Grande Municipal Airport, AZ, United States (KCGZ) 32-57N 111-46W
Feb 15, 2019 - 09:56 PM EST / 2019.02.16 0256 UTC
Wind: from the NNW (330 degrees) at 5 MPH (4 KT):0
Visibility: 10 mile(s):0
Sky conditions: clear
Temperature: 57.9 F (14.4 C)
Dew Point: 46.9 F (8.3 C)
Relative Humidity: 66%
Pressure (altimeter): 29.96 in. Hg (1014 hPa)
Pressure tendency: 0.01 inches (0.4 hPa) lower than three hours ago
ob: KCGZ 160256Z AUTO 33004KT 10SM CLR 14/08 A2996 RMK AO2 SLP143 6//// T01440083 58004 PNO
cycle: 3

Station Type Date Time Source
KCGZ TAF UTC NOAA

Error!


Example: see airport list